Bookmark and Share
Track history (hours):
 

Flinterbirka

Last reported at 2014-Apr-24 03:33 UTC. Time now 2014-Apr-24 04:01 UTC.
Position N 55°13' E 013°15'.

Length 81 m; draft 3.7 m.

Type: Cargo ship. MMSI: 246525000.

NotesDate/timePositionNaut miles runAvg speedWind from/ knotsBaromVisibWave heightAir tempDewpointWater temp
2014-Apr-24 03:33N 55°13' E 013°15'9 9.0
2014-Apr-24 02:33N 55°14' E 012°59'10 9.5
2014-Apr-24 01:33N 55°17' E 012°43'9 8.7
2014-Apr-24 00:33N 55°25' E 012°40'1010.0
2014-Apr-23 23:33N 55°35' E 012°42'1010.0
2014-Apr-23 22:33N 55°45' E 012°41'1010.4
2014-Apr-23 21:33N 55°56' E 012°39'9 9.2
2014-Apr-23 20:33N 56°05' E 012°36'8 7.9
2014-Apr-23 19:33N 56°10' E 012°25'1010.2
2014-Apr-23 18:33N 56°15' E 012°10'  
2014-Apr-21 09:14N 57°26' E 010°43'710.2
2014-Apr-21 08:33N 57°33' E 010°43'1010.0
2014-Apr-21 07:33N 57°43' E 010°45'7 7.2
2014-Apr-21 06:33N 57°48' E 010°36'1010.1
2014-Apr-21 05:33N 57°48' E 010°17'24510.2
2014-Apr-20 05:25N 58°12' E 002°37'16610.2
2014-Apr-19 13:13N 58°41' W 002°34'711.0
2014-Apr-19 12:33N 58°41' W 002°48'1513.8
2014-Apr-19 11:30N 58°43' W 003°16'1213.1
2014-Apr-19 10:33N 58°42' W 003°40'1212.1
2014-Apr-19 09:33N 58°41' W 004°03'1211.9
2014-Apr-19 08:33N 58°40' W 004°26'4110.1
2014-Apr-19 04:29N 58°19' W 005°33'1010.6
2014-Apr-19 03:33N 58°10' W 005°43'14510.3
2014-Apr-18 13:30N 55°49' W 006°47'1010.9
2014-Apr-18 12:33N 55°40' W 006°38'1110.7
2014-Apr-18 11:33N 55°33' W 006°24'9 9.3
2014-Apr-18 10:33N 55°26' W 006°12'8 8.0
2014-Apr-18 09:33N 55°22' W 006°01'8 7.7
2014-Apr-18 08:33N 55°16' W 005°52'2210.5
2014-Apr-18 06:31N 54°56' W 005°37'1111.9
2014-Apr-18 05:33N 54°45' W 005°30'1212.5
2014-Apr-18 04:33N 54°34' W 005°21'1212.1
2014-Apr-18 03:33N 54°22' W 005°20'6711.2
2014-Apr-17 21:33N 53°20' W 006°07'4 3.5
2014-Apr-17 20:29N 53°21' W 006°13'0 0.0
2014-Apr-17 19:28N 53°21' W 006°13'0 0.0
2014-Apr-17 18:28N 53°21' W 006°13'0 0.0
2014-Apr-17 17:33N 53°21' W 006°13'0 0.0
2014-Apr-17 16:33N 53°21' W 006°13'0 0.0
2014-Apr-17 15:26N 53°21' W 006°13'0 0.0
2014-Apr-17 14:32N 53°21' W 006°13'0 0.0
2014-Apr-17 13:26N 53°21' W 006°13'0 0.0
2014-Apr-17 12:31N 53°21' W 006°13'0 0.0
2014-Apr-17 11:31N 53°21' W 006°13'0 0.0
2014-Apr-17 10:30N 53°21' W 006°13'0 0.0
2014-Apr-17 09:30N 53°21' W 006°13'0 0.0
2014-Apr-17 08:32N 53°21' W 006°13'0 0.0
2014-Apr-17 07:29N 53°21' W 006°13'0 0.0
2014-Apr-17 06:29N 53°21' W 006°13'0 0.0
2014-Apr-17 05:28N 53°21' W 006°13'0 0.0
2014-Apr-17 04:28N 53°21' W 006°13'0 0.0
2014-Apr-17 03:33N 53°21' W 006°13'0 0.0
2014-Apr-17 02:33N 53°21' W 006°13'0 0.0
2014-Apr-17 01:32N 53°21' W 006°13'0 0.0
2014-Apr-17 00:32N 53°21' W 006°13'0 0.0
2014-Apr-16 23:32N 53°21' W 006°13'0 0.0
2014-Apr-16 22:31N 53°21' W 006°13'0 0.0
2014-Apr-16 21:31N 53°21' W 006°13'0 0.0
2014-Apr-16 20:30N 53°21' W 006°13'0 0.0
2014-Apr-16 19:30N 53°21' W 006°13'0 0.0
2014-Apr-16 18:29N 53°21' W 006°13'0 0.0
2014-Apr-16 17:23N 53°21' W 006°13'0 0.0
2014-Apr-16 16:29N 53°21' W 006°13'0 0.0
2014-Apr-16 15:28N 53°21' W 006°13'0 0.0
2014-Apr-16 14:28N 53°21' W 006°13'0 0.0
2014-Apr-16 13:27N 53°21' W 006°13'0 0.0
2014-Apr-16 12:33N 53°21' W 006°13'87 8.7
2014-Apr-16 02:33N 53°34' W 003°49'1110.6
2014-Apr-16 01:33N 53°34' W 003°31'1010.1
2014-Apr-16 00:33N 53°31' W 003°14'9 9.5
2014-Apr-15 23:33N 53°26' W 003°01'  

Dump ship's entire track history

sailing weather and tide predictions

Flinterbirka — PHFQ — position and weather